sensor_id;sensor_type;location;lat;lon;timestamp;temperature;humidity
20973;DHT22;10645;52.370;13.314;2023-04-03T00:01:16;0.60;99.90
20973;DHT22;10645;52.370;13.314;2023-04-03T00:03:44;0.60;99.90
20973;DHT22;10645;52.370;13.314;2023-04-03T00:06:11;0.40;99.90
20973;DHT22;10645;52.370;13.314;2023-04-03T00:08:38;0.50;99.90
20973;DHT22;10645;52.370;13.314;2023-04-03T00:11:05;0.40;99.90
20973;DHT22;10645;52.370;13.314;2023-04-03T00:13:32;0.50;99.90
20973;DHT22;10645;52.370;13.314;2023-04-03T00:15:59;0.40;99.90
20973;DHT22;10645;52.370;13.314;2023-04-03T00:18:25;0.50;99.90
20973;DHT22;10645;52.370;13.314;2023-04-03T00:20:51;0.60;99.90
20973;DHT22;10645;52.370;13.314;2023-04-03T00:23:17;0.60;99.90
20973;DHT22;10645;52.370;13.314;2023-04-03T00:25:43;0.60;99.90
20973;DHT22;10645;52.370;13.314;2023-04-03T00:28:09;0.50;99.90
20973;DHT22;10645;52.370;13.314;2023-04-03T00:30:36;0.50;99.90
20973;DHT22;10645;52.370;13.314;2023-04-03T00:33:02;0.50;99.90
20973;DHT22;10645;52.370;13.314;2023-04-03T00:35:28;0.40;99.90
20973;DHT22;10645;52.370;13.314;2023-04-03T00:37:56;0.40;99.90
20973;DHT22;10645;52.370;13.314;2023-04-03T00:40:24;0.40;99.90
20973;DHT22;10645;52.370;13.314;2023-04-03T00:42:57;0.40;99.90
20973;DHT22;10645;52.370;13.314;2023-04-03T00:45:36;0.40;99.90
20973;DHT22;10645;52.370;13.314;2023-04-03T00:48:05;0.40;99.90
20973;DHT22;10645;52.370;13.314;2023-04-03T00:50:35;0.40;99.90
20973;DHT22;10645;52.370;13.314;2023-04-03T00:53:04;0.30;99.90
20973;DHT22;10645;52.370;13.314;2023-04-03T00:55:31;0.20;99.90
20973;DHT22;10645;52.370;13.314;2023-04-03T00:57:58;0.20;99.90
20973;DHT22;10645;52.370;13.314;2023-04-03T01:00:25;0.20;99.90
20973;DHT22;10645;52.370;13.314;2023-04-03T01:02:51;0.20;99.90
20973;DHT22;10645;52.370;13.314;2023-04-03T01:05:19;0.20;99.90
20973;DHT22;10645;52.370;13.314;2023-04-03T01:07:46;0.20;99.90
20973;DHT22;10645;52.370;13.314;2023-04-03T01:10:15;0.30;99.90
20973;DHT22;10645;52.370;13.314;2023-04-03T01:12:44;0.40;99.90
20973;DHT22;10645;52.370;13.314;2023-04-03T01:15:18;0.30;99.90
20973;DHT22;10645;52.370;13.314;2023-04-03T01:17:47;0.20;99.90
20973;DHT22;10645;52.370;13.314;2023-04-03T01:23:17;0.00;99.90
20973;DHT22;10645;52.370;13.314;2023-04-03T01:25:49;0.00;99.90
20973;DHT22;10645;52.370;13.314;2023-04-03T01:28:22;-0.10;99.90
20973;DHT22;10645;52.370;13.314;2023-04-03T01:30:58;0.00;99.90
20973;DHT22;10645;52.370;13.314;2023-04-03T01:33:26;-0.10;99.90
20973;DHT22;10645;52.370;13.314;2023-04-03T01:35:52;-0.10;99.90
20973;DHT22;10645;52.370;13.314;2023-04-03T01:38:18;-0.10;99.90
20973;DHT22;10645;52.370;13.314;2023-04-03T01:40:44;-0.20;99.90
20973;DHT22;10645;52.370;13.314;2023-04-03T01:43:11;-0.20;99.90
20973;DHT22;10645;52.370;13.314;2023-04-03T01:45:37;-0.40;99.90
20973;DHT22;10645;52.370;13.314;2023-04-03T01:48:04;-0.50;99.90
20973;DHT22;10645;52.370;13.314;2023-04-03T01:50:30;-0.50;99.90
20973;DHT22;10645;52.370;13.314;2023-04-03T01:52:57;-0.70;99.90
20973;DHT22;10645;52.370;13.314;2023-04-03T01:55:23;-0.70;99.90
20973;DHT22;10645;52.370;13.314;2023-04-03T01:57:49;-0.70;99.90
20973;DHT22;10645;52.370;13.314;2023-04-03T02:00:15;-0.80;99.90
20973;DHT22;10645;52.370;13.314;2023-04-03T02:02:42;-0.80;99.90
20973;DHT22;10645;52.370;13.314;2023-04-03T02:05:08;-0.70;99.90
20973;DHT22;10645;52.370;13.314;2023-04-03T02:07:34;-0.60;99.90
20973;DHT22;10645;52.370;13.314;2023-04-03T02:10:01;-0.60;99.90
20973;DHT22;10645;52.370;13.314;2023-04-03T02:12:27;-0.60;99.90
20973;DHT22;10645;52.370;13.314;2023-04-03T02:14:53;-0.60;99.90
20973;DHT22;10645;52.370;13.314;2023-04-03T02:17:19;-0.60;99.90
20973;DHT22;10645;52.370;13.314;2023-04-03T02:19:45;-0.50;99.90
20973;DHT22;10645;52.370;13.314;2023-04-03T02:22:11;-0.50;99.90
20973;DHT22;10645;52.370;13.314;2023-04-03T02:24:37;-0.40;99.90
20973;DHT22;10645;52.370;13.314;2023-04-03T02:27:06;-0.40;99.90
20973;DHT22;10645;52.370;13.314;2023-04-03T02:29:33;-0.40;99.90
20973;DHT22;10645;52.370;13.314;2023-04-03T02:32:00;-0.40;99.90
20973;DHT22;10645;52.370;13.314;2023-04-03T02:34:26;-0.40;99.90
20973;DHT22;10645;52.370;13.314;2023-04-03T02:36:53;-0.30;99.90
20973;DHT22;10645;52.370;13.314;2023-04-03T02:39:19;-0.40;99.90
20973;DHT22;10645;52.370;13.314;2023-04-03T02:41:45;-0.40;99.90
20973;DHT22;10645;52.370;13.314;2023-04-03T02:44:18;-0.30;99.90
20973;DHT22;10645;52.370;13.314;2023-04-03T02:46:44;-0.30;99.90
20973;DHT22;10645;52.370;13.314;2023-04-03T02:49:10;-0.30;99.90
20973;DHT22;10645;52.370;13.314;2023-04-03T02:51:37;-0.40;99.90
20973;DHT22;10645;52.370;13.314;2023-04-03T02:54:03;-0.40;99.90
20973;DHT22;10645;52.370;13.314;2023-04-03T02:56:33;-0.40;99.90
20973;DHT22;10645;52.370;13.314;2023-04-03T02:58:59;-0.30;99.90
20973;DHT22;10645;52.370;13.314;2023-04-03T03:01:26;-0.30;99.90
20973;DHT22;10645;52.370;13.314;2023-04-03T03:03:54;-0.30;99.90
20973;DHT22;10645;52.370;13.314;2023-04-03T03:06:20;-0.20;99.90
20973;DHT22;10645;52.370;13.314;2023-04-03T03:08:46;-0.20;99.90
20973;DHT22;10645;52.370;13.314;2023-04-03T03:11:12;-0.20;99.90
20973;DHT22;10645;52.370;13.314;2023-04-03T03:13:38;-0.10;99.90
20973;DHT22;10645;52.370;13.314;2023-04-03T03:16:05;-0.10;99.90
20973;DHT22;10645;52.370;13.314;2023-04-03T03:18:31;-0.10;99.90
20973;DHT22;10645;52.370;13.314;2023-04-03T03:20:59;-0.10;99.90
20973;DHT22;10645;52.370;13.314;2023-04-03T03:23:28;0.00;99.90
20973;DHT22;10645;52.370;13.314;2023-04-03T03:25:56;-0.10;99.90
20973;DHT22;10645;52.370;13.314;2023-04-03T03:28:23;-0.10;99.90
20973;DHT22;10645;52.370;13.314;2023-04-03T03:30:49;-0.20;99.90
20973;DHT22;10645;52.370;13.314;2023-04-03T03:33:17;-0.20;99.90
20973;DHT22;10645;52.370;13.314;2023-04-03T03:35:44;-0.20;99.90
20973;DHT22;10645;52.370;13.314;2023-04-03T03:38:10;-0.40;99.90
20973;DHT22;10645;52.370;13.314;2023-04-03T03:40:37;-0.40;99.90
20973;DHT22;10645;52.370;13.314;2023-04-03T03:43:03;-0.50;99.90
20973;DHT22;10645;52.370;13.314;2023-04-03T03:45:29;-0.50;99.90
20973;DHT22;10645;52.370;13.314;2023-04-03T03:47:56;-0.60;99.90
20973;DHT22;10645;52.370;13.314;2023-04-03T03:50:23;-0.70;99.90
20973;DHT22;10645;52.370;13.314;2023-04-03T03:52:49;-0.70;99.90
20973;DHT22;10645;52.370;13.314;2023-04-03T03:55:17;-0.70;99.90
20973;DHT22;10645;52.370;13.314;2023-04-03T03:57:43;-0.70;99.90
20973;DHT22;10645;52.370;13.314;2023-04-03T04:00:10;-0.70;99.90
20973;DHT22;10645;52.370;13.314;2023-04-03T04:02:47;-0.70;99.90
20973;DHT22;10645;52.370;13.314;2023-04-03T04:05:17;-0.70;99.90
20973;DHT22;10645;52.370;13.314;2023-04-03T04:07:44;-0.70;99.90
20973;DHT22;10645;52.370;13.314;2023-04-03T04:10:10;-0.70;99.90
20973;DHT22;10645;52.370;13.314;2023-04-03T04:12:36;-0.60;99.90
20973;DHT22;10645;52.370;13.314;2023-04-03T04:15:03;-0.60;99.90
20973;DHT22;10645;52.370;13.314;2023-04-03T04:17:29;-0.70;99.90
20973;DHT22;10645;52.370;13.314;2023-04-03T04:19:56;-0.70;99.90
20973;DHT22;10645;52.370;13.314;2023-04-03T04:22:22;-0.60;99.90
20973;DHT22;10645;52.370;13.314;2023-04-03T04:24:48;-0.50;99.90
20973;DHT22;10645;52.370;13.314;2023-04-03T04:27:14;-0.60;99.90
20973;DHT22;10645;52.370;13.314;2023-04-03T04:29:42;-0.60;99.90
20973;DHT22;10645;52.370;13.314;2023-04-03T04:32:08;-0.60;99.90
20973;DHT22;10645;52.370;13.314;2023-04-03T04:34:35;-0.50;99.90
20973;DHT22;10645;52.370;13.314;2023-04-03T04:37:01;-0.50;99.90
20973;DHT22;10645;52.370;13.314;2023-04-03T04:39:27;-0.40;99.90
20973;DHT22;10645;52.370;13.314;2023-04-03T04:41:56;-0.30;99.90
20973;DHT22;10645;52.370;13.314;2023-04-03T04:44:24;-0.40;99.90
20973;DHT22;10645;52.370;13.314;2023-04-03T04:46:50;-0.40;99.90
20973;DHT22;10645;52.370;13.314;2023-04-03T04:49:17;-0.40;99.90
20973;DHT22;10645;52.370;13.314;2023-04-03T04:51:43;-0.50;99.90
20973;DHT22;10645;52.370;13.314;2023-04-03T04:54:10;-0.40;99.90
20973;DHT22;10645;52.370;13.314;2023-04-03T04:56:37;-0.40;99.90
20973;DHT22;10645;52.370;13.314;2023-04-03T04:59:05;-0.40;99.90
20973;DHT22;10645;52.370;13.314;2023-04-03T05:01:32;-0.40;99.90
20973;DHT22;10645;52.370;13.314;2023-04-03T05:04:04;-0.40;99.90
20973;DHT22;10645;52.370;13.314;2023-04-03T05:06:30;-0.40;99.90
20973;DHT22;10645;52.370;13.314;2023-04-03T05:08:58;-0.40;99.90
20973;DHT22;10645;52.370;13.314;2023-04-03T05:11:25;-0.30;99.90
20973;DHT22;10645;52.370;13.314;2023-04-03T05:13:53;-0.20;99.90
20973;DHT22;10645;52.370;13.314;2023-04-03T05:16:20;-0.10;99.90
20973;DHT22;10645;52.370;13.314;2023-04-03T05:18:47;-0.10;99.90
20973;DHT22;10645;52.370;13.314;2023-04-03T05:21:18;-0.10;99.90
20973;DHT22;10645;52.370;13.314;2023-04-03T05:23:45;0.00;99.90
20973;DHT22;10645;52.370;13.314;2023-04-03T05:26:12;0.10;99.90
20973;DHT22;10645;52.370;13.314;2023-04-03T05:28:39;0.10;99.90
20973;DHT22;10645;52.370;13.314;2023-04-03T05:31:06;0.20;99.90
20973;DHT22;10645;52.370;13.314;2023-04-03T05:33:35;0.30;99.90
20973;DHT22;10645;52.370;13.314;2023-04-03T05:36:04;0.40;99.90
20973;DHT22;10645;52.370;13.314;2023-04-03T05:38:31;0.40;99.90
20973;DHT22;10645;52.370;13.314;2023-04-03T05:40:58;0.50;99.90
20973;DHT22;10645;52.370;13.314;2023-04-03T05:43:24;0.60;99.90
20973;DHT22;10645;52.370;13.314;2023-04-03T05:45:51;0.70;99.90
20973;DHT22;10645;52.370;13.314;2023-04-03T05:48:18;0.70;99.90
20973;DHT22;10645;52.370;13.314;2023-04-03T05:50:46;0.80;99.90
20973;DHT22;10645;52.370;13.314;2023-04-03T05:53:21;0.80;99.90
20973;DHT22;10645;52.370;13.314;2023-04-03T05:55:48;0.90;99.90
20973;DHT22;10645;52.370;13.314;2023-04-03T05:58:14;0.90;99.90
20973;DHT22;10645;52.370;13.314;2023-04-03T06:00:41;1.00;99.90
20973;DHT22;10645;52.370;13.314;2023-04-03T06:03:08;1.00;99.90
20973;DHT22;10645;52.370;13.314;2023-04-03T06:05:34;1.10;99.90
20973;DHT22;10645;52.370;13.314;2023-04-03T06:08:00;1.20;99.90
20973;DHT22;10645;52.370;13.314;2023-04-03T06:10:27;1.20;99.90
20973;DHT22;10645;52.370;13.314;2023-04-03T06:12:53;1.30;99.90
20973;DHT22;10645;52.370;13.314;2023-04-03T06:15:19;1.40;99.90
20973;DHT22;10645;52.370;13.314;2023-04-03T06:17:46;1.50;99.90
20973;DHT22;10645;52.370;13.314;2023-04-03T06:20:12;1.60;99.90
20973;DHT22;10645;52.370;13.314;2023-04-03T06:22:39;1.60;99.90
20973;DHT22;10645;52.370;13.314;2023-04-03T06:25:06;1.60;99.90
20973;DHT22;10645;52.370;13.314;2023-04-03T06:27:32;1.70;99.90
20973;DHT22;10645;52.370;13.314;2023-04-03T06:29:58;1.70;99.90
20973;DHT22;10645;52.370;13.314;2023-04-03T06:32:24;1.80;99.90
20973;DHT22;10645;52.370;13.314;2023-04-03T06:34:50;1.90;99.90
20973;DHT22;10645;52.370;13.314;2023-04-03T06:37:19;2.00;99.90
20973;DHT22;10645;52.370;13.314;2023-04-03T06:39:46;2.00;99.90
20973;DHT22;10645;52.370;13.314;2023-04-03T06:42:12;2.00;99.90
20973;DHT22;10645;52.370;13.314;2023-04-03T06:44:47;2.10;99.90
20973;DHT22;10645;52.370;13.314;2023-04-03T06:47:15;2.10;99.90
20973;DHT22;10645;52.370;13.314;2023-04-03T06:49:41;2.10;99.90
20973;DHT22;10645;52.370;13.314;2023-04-03T06:52:08;2.20;99.90
20973;DHT22;10645;52.370;13.314;2023-04-03T06:54:34;2.30;99.90
20973;DHT22;10645;52.370;13.314;2023-04-03T06:57:01;2.30;99.90
20973;DHT22;10645;52.370;13.314;2023-04-03T06:59:27;2.30;99.90
20973;DHT22;10645;52.370;13.314;2023-04-03T07:01:54;2.40;99.90
20973;DHT22;10645;52.370;13.314;2023-04-03T07:04:20;2.40;99.90
20973;DHT22;10645;52.370;13.314;2023-04-03T07:06:46;2.40;99.90
20973;DHT22;10645;52.370;13.314;2023-04-03T07:09:14;2.40;99.90
20973;DHT22;10645;52.370;13.314;2023-04-03T07:11:40;2.50;99.90
20973;DHT22;10645;52.370;13.314;2023-04-03T07:14:06;2.60;99.90
20973;DHT22;10645;52.370;13.314;2023-04-03T07:16:34;2.60;99.90
20973;DHT22;10645;52.370;13.314;2023-04-03T07:19:01;2.70;99.90
20973;DHT22;10645;52.370;13.314;2023-04-03T07:21:28;2.80;99.90
20973;DHT22;10645;52.370;13.314;2023-04-03T07:23:54;2.80;99.90
20973;DHT22;10645;52.370;13.314;2023-04-03T07:26:21;2.90;99.90
20973;DHT22;10645;52.370;13.314;2023-04-03T07:28:49;3.00;99.90
20973;DHT22;10645;52.370;13.314;2023-04-03T07:31:16;3.00;99.90
20973;DHT22;10645;52.370;13.314;2023-04-03T07:33:43;3.20;99.90
20973;DHT22;10645;52.370;13.314;2023-04-03T07:36:17;3.40;99.90
20973;DHT22;10645;52.370;13.314;2023-04-03T07:38:44;3.70;99.90
20973;DHT22;10645;52.370;13.314;2023-04-03T07:41:15;4.00;99.90
20973;DHT22;10645;52.370;13.314;2023-04-03T07:43:41;3.90;99.90
20973;DHT22;10645;52.370;13.314;2023-04-03T07:46:11;3.90;99.90
20973;DHT22;10645;52.370;13.314;2023-04-03T07:48:37;4.10;99.90
20973;DHT22;10645;52.370;13.314;2023-04-03T07:51:04;4.20;99.90
20973;DHT22;10645;52.370;13.314;2023-04-03T07:53:31;4.10;99.90
20973;DHT22;10645;52.370;13.314;2023-04-03T07:55:58;4.30;99.90
20973;DHT22;10645;52.370;13.314;2023-04-03T07:58:25;4.10;99.90
20973;DHT22;10645;52.370;13.314;2023-04-03T08:00:51;4.20;99.90
20973;DHT22;10645;52.370;13.314;2023-04-03T08:03:17;4.10;99.90
20973;DHT22;10645;52.370;13.314;2023-04-03T08:05:46;4.50;99.90
20973;DHT22;10645;52.370;13.314;2023-04-03T08:08:15;4.80;99.90
20973;DHT22;10645;52.370;13.314;2023-04-03T08:10:43;4.80;99.90
20973;DHT22;10645;52.370;13.314;2023-04-03T08:13:09;4.80;99.90
20973;DHT22;10645;52.370;13.314;2023-04-03T08:15:36;5.00;99.90
20973;DHT22;10645;52.370;13.314;2023-04-03T08:18:03;4.80;99.90
20973;DHT22;10645;52.370;13.314;2023-04-03T08:20:30;4.80;99.90
20973;DHT22;10645;52.370;13.314;2023-04-03T08:22:56;4.70;99.90
20973;DHT22;10645;52.370;13.314;2023-04-03T08:25:22;4.60;99.90
20973;DHT22;10645;52.370;13.314;2023-04-03T08:27:48;4.40;99.90
20973;DHT22;10645;52.370;13.314;2023-04-03T08:30:15;4.20;99.90
20973;DHT22;10645;52.370;13.314;2023-04-03T08:32:41;4.20;99.90
20973;DHT22;10645;52.370;13.314;2023-04-03T08:35:10;4.30;99.90
20973;DHT22;10645;52.370;13.314;2023-04-03T08:37:37;4.20;99.90
20973;DHT22;10645;52.370;13.314;2023-04-03T08:40:06;4.40;99.90
20973;DHT22;10645;52.370;13.314;2023-04-03T08:45:26;4.80;99.90
20973;DHT22;10645;52.370;13.314;2023-04-03T08:48:11;4.90;99.90
20973;DHT22;10645;52.370;13.314;2023-04-03T08:50:51;5.10;99.90
20973;DHT22;10645;52.370;13.314;2023-04-03T08:53:21;4.80;99.90
20973;DHT22;10645;52.370;13.314;2023-04-03T08:55:50;4.90;99.90
20973;DHT22;10645;52.370;13.314;2023-04-03T08:58:19;5.20;99.90
20973;DHT22;10645;52.370;13.314;2023-04-03T09:03:21;5.00;99.90
20973;DHT22;10645;52.370;13.314;2023-04-03T09:06:00;5.10;99.90
20973;DHT22;10645;52.370;13.314;2023-04-03T09:08:30;5.00;99.90
20973;DHT22;10645;52.370;13.314;2023-04-03T09:11:18;5.00;99.90
20973;DHT22;10645;52.370;13.314;2023-04-03T09:14:02;4.80;99.90
20973;DHT22;10645;52.370;13.314;2023-04-03T09:16:36;4.90;99.90
20973;DHT22;10645;52.370;13.314;2023-04-03T09:22:07;4.90;99.90
20973;DHT22;10645;52.370;13.314;2023-04-03T09:24:38;4.70;99.90
20973;DHT22;10645;52.370;13.314;2023-04-03T09:27:07;4.40;99.90
20973;DHT22;10645;52.370;13.314;2023-04-03T09:29:39;4.50;99.90
20973;DHT22;10645;52.370;13.314;2023-04-03T09:32:25;4.40;99.90
20973;DHT22;10645;52.370;13.314;2023-04-03T09:34:53;4.40;99.90
20973;DHT22;10645;52.370;13.314;2023-04-03T09:37:37;4.30;99.90
20973;DHT22;10645;52.370;13.314;2023-04-03T09:40:04;4.20;99.90
20973;DHT22;10645;52.370;13.314;2023-04-03T09:42:31;4.20;99.90
20973;DHT22;10645;52.370;13.314;2023-04-03T09:45:04;4.10;99.90
20973;DHT22;10645;52.370;13.314;2023-04-03T09:47:34;4.20;99.90
20973;DHT22;10645;52.370;13.314;2023-04-03T09:52:44;5.80;99.90
20973;DHT22;10645;52.370;13.314;2023-04-03T09:55:29;5.70;99.90
20973;DHT22;10645;52.370;13.314;2023-04-03T09:58:01;5.60;99.90
20973;DHT22;10645;52.370;13.314;2023-04-03T10:00:39;5.40;99.90
20973;DHT22;10645;52.370;13.314;2023-04-03T10:03:24;5.50;99.90
20973;DHT22;10645;52.370;13.314;2023-04-03T10:05:51;6.00;99.90
20973;DHT22;10645;52.370;13.314;2023-04-03T10:08:22;6.10;99.90
20973;DHT22;10645;52.370;13.314;2023-04-03T10:11:07;6.30;99.90
20973;DHT22;10645;52.370;13.314;2023-04-03T10:13:36;6.30;99.90
20973;DHT22;10645;52.370;13.314;2023-04-03T10:16:07;6.20;99.90
20973;DHT22;10645;52.370;13.314;2023-04-03T10:19:03;6.00;99.90
20973;DHT22;10645;52.370;13.314;2023-04-03T10:21:49;5.80;99.80
20973;DHT22;10645;52.370;13.314;2023-04-03T10:24:30;6.10;99.90
20973;DHT22;10645;52.370;13.314;2023-04-03T10:27:13;5.90;99.90
20973;DHT22;10645;52.370;13.314;2023-04-03T10:30:00;5.90;99.90
20973;DHT22;10645;52.370;13.314;2023-04-03T10:32:47;5.90;99.90
20973;DHT22;10645;52.370;13.314;2023-04-03T10:35:44;5.70;99.90
20973;DHT22;10645;52.370;13.314;2023-04-03T10:38:20;5.60;99.90
20973;DHT22;10645;52.370;13.314;2023-04-03T10:41:07;5.70;99.90
20973;DHT22;10645;52.370;13.314;2023-04-03T10:46:27;5.70;99.90
20973;DHT22;10645;52.370;13.314;2023-04-03T10:49:27;5.70;99.90
20973;DHT22;10645;52.370;13.314;2023-04-03T10:52:06;5.60;99.90
20973;DHT22;10645;52.370;13.314;2023-04-03T10:54:44;5.60;99.90
20973;DHT22;10645;52.370;13.314;2023-04-03T10:57:12;5.60;99.90
20973;DHT22;10645;52.370;13.314;2023-04-03T10:59:45;5.30;99.90
20973;DHT22;10645;52.370;13.314;2023-04-03T11:04:43;5.30;99.90
20973;DHT22;10645;52.370;13.314;2023-04-03T11:07:15;5.30;99.90
20973;DHT22;10645;52.370;13.314;2023-04-03T11:09:46;5.50;99.90
20973;DHT22;10645;52.370;13.314;2023-04-03T11:12:25;5.50;99.90
20973;DHT22;10645;52.370;13.314;2023-04-03T11:14:55;5.60;99.90
20973;DHT22;10645;52.370;13.314;2023-04-03T11:17:36;5.50;99.70
20973;DHT22;10645;52.370;13.314;2023-04-03T11:20:14;5.60;99.90
20973;DHT22;10645;52.370;13.314;2023-04-03T11:23:06;5.50;99.80
20973;DHT22;10645;52.370;13.314;2023-04-03T11:25:32;5.50;99.90
20973;DHT22;10645;52.370;13.314;2023-04-03T11:28:03;5.50;99.90
20973;DHT22;10645;52.370;13.314;2023-04-03T11:30:48;5.70;99.90
20973;DHT22;10645;52.370;13.314;2023-04-03T11:36:18;5.80;99.90
20973;DHT22;10645;52.370;13.314;2023-04-03T11:38:49;5.80;99.90
20973;DHT22;10645;52.370;13.314;2023-04-03T11:41:28;5.90;99.90
20973;DHT22;10645;52.370;13.314;2023-04-03T11:44:31;5.90;99.90
20973;DHT22;10645;52.370;13.314;2023-04-03T11:46:59;6.00;99.90
20973;DHT22;10645;52.370;13.314;2023-04-03T11:49:51;5.90;99.90
20973;DHT22;10645;52.370;13.314;2023-04-03T12:08:47;6.70;99.90
20973;DHT22;10645;52.370;13.314;2023-04-03T12:11:19;6.20;99.90
20973;DHT22;10645;52.370;13.314;2023-04-03T12:32:17;6.70;99.90
20973;DHT22;10645;52.370;13.314;2023-04-03T12:34:59;6.80;99.90
20973;DHT22;10645;52.370;13.314;2023-04-03T12:37:44;6.50;99.90
20973;DHT22;10645;52.370;13.314;2023-04-03T12:45:58;6.40;99.90
20973;DHT22;10645;52.370;13.314;2023-04-03T12:51:05;6.40;99.90
20973;DHT22;10645;52.370;13.314;2023-04-03T12:53:33;6.10;99.90
20973;DHT22;10645;52.370;13.314;2023-04-03T12:58:46;5.80;99.90
20973;DHT22;10645;52.370;13.314;2023-04-03T13:01:19;5.70;99.90
20973;DHT22;10645;52.370;13.314;2023-04-03T13:03:49;5.50;99.90
20973;DHT22;10645;52.370;13.314;2023-04-03T13:06:19;5.40;99.90
20973;DHT22;10645;52.370;13.314;2023-04-03T13:08:52;5.30;99.90
20973;DHT22;10645;52.370;13.314;2023-04-03T13:11:20;5.30;99.90
20973;DHT22;10645;52.370;13.314;2023-04-03T13:13:57;5.20;99.90
20973;DHT22;10645;52.370;13.314;2023-04-03T13:16:24;5.30;99.90
20973;DHT22;10645;52.370;13.314;2023-04-03T13:18:52;5.50;99.90
20973;DHT22;10645;52.370;13.314;2023-04-03T13:21:24;5.70;99.90
20973;DHT22;10645;52.370;13.314;2023-04-03T13:23:55;5.80;99.90
20973;DHT22;10645;52.370;13.314;2023-04-03T13:26:25;5.60;99.90
20973;DHT22;10645;52.370;13.314;2023-04-03T13:29:02;5.70;99.90
20973;DHT22;10645;52.370;13.314;2023-04-03T13:31:38;5.70;99.90
20973;DHT22;10645;52.370;13.314;2023-04-03T13:34:20;5.80;99.90
20973;DHT22;10645;52.370;13.314;2023-04-03T13:41:45;5.80;99.90
20973;DHT22;10645;52.370;13.314;2023-04-03T13:46:48;5.80;99.80
20973;DHT22;10645;52.370;13.314;2023-04-03T13:49:33;5.90;99.90
20973;DHT22;10645;52.370;13.314;2023-04-03T13:52:02;5.90;99.90
20973;DHT22;10645;52.370;13.314;2023-04-03T13:54:34;5.80;99.90
20973;DHT22;10645;52.370;13.314;2023-04-03T13:57:03;5.80;99.90
20973;DHT22;10645;52.370;13.314;2023-04-03T13:59:36;5.90;99.90
20973;DHT22;10645;52.370;13.314;2023-04-03T14:04:51;5.80;99.90
20973;DHT22;10645;52.370;13.314;2023-04-03T14:07:19;5.60;99.90
20973;DHT22;10645;52.370;13.314;2023-04-03T14:09:47;5.50;99.90
20973;DHT22;10645;52.370;13.314;2023-04-03T14:12:35;5.40;99.90
20973;DHT22;10645;52.370;13.314;2023-04-03T14:15:27;5.40;99.90
20973;DHT22;10645;52.370;13.314;2023-04-03T14:17:54;5.40;99.90
20973;DHT22;10645;52.370;13.314;2023-04-03T14:20:24;5.30;99.90
20973;DHT22;10645;52.370;13.314;2023-04-03T14:22:51;5.20;99.90
20973;DHT22;10645;52.370;13.314;2023-04-03T14:25:19;5.20;99.90
20973;DHT22;10645;52.370;13.314;2023-04-03T14:27:48;5.20;99.90
20973;DHT22;10645;52.370;13.314;2023-04-03T14:30:21;5.20;99.90
20973;DHT22;10645;52.370;13.314;2023-04-03T14:32:48;5.10;99.90
20973;DHT22;10645;52.370;13.314;2023-04-03T14:35:15;5.20;99.90
20973;DHT22;10645;52.370;13.314;2023-04-03T14:37:42;5.20;99.90
20973;DHT22;10645;52.370;13.314;2023-04-03T14:40:15;5.20;99.90
20973;DHT22;10645;52.370;13.314;2023-04-03T14:42:41;5.30;99.90
20973;DHT22;10645;52.370;13.314;2023-04-03T14:45:10;5.30;99.90
20973;DHT22;10645;52.370;13.314;2023-04-03T14:47:44;5.50;99.90
20973;DHT22;10645;52.370;13.314;2023-04-03T14:50:17;5.50;99.90
20973;DHT22;10645;52.370;13.314;2023-04-03T14:52:44;5.50;99.90
20973;DHT22;10645;52.370;13.314;2023-04-03T14:55:15;5.50;99.90
20973;DHT22;10645;52.370;13.314;2023-04-03T14:57:41;5.40;99.90
20973;DHT22;10645;52.370;13.314;2023-04-03T15:00:13;5.30;99.90
20973;DHT22;10645;52.370;13.314;2023-04-03T15:02:40;5.40;99.90
20973;DHT22;10645;52.370;13.314;2023-04-03T15:05:08;5.50;99.80
20973;DHT22;10645;52.370;13.314;2023-04-03T15:07:41;5.70;99.90
20973;DHT22;10645;52.370;13.314;2023-04-03T15:10:20;6.00;99.40
20973;DHT22;10645;52.370;13.314;2023-04-03T15:12:47;6.20;99.90
20973;DHT22;10645;52.370;13.314;2023-04-03T15:15:15;6.00;98.80
20973;DHT22;10645;52.370;13.314;2023-04-03T15:17:42;5.90;99.90
20973;DHT22;10645;52.370;13.314;2023-04-03T15:20:15;5.80;99.90
20973;DHT22;10645;52.370;13.314;2023-04-03T15:22:41;5.50;99.90
20973;DHT22;10645;52.370;13.314;2023-04-03T15:25:08;5.30;99.90
20973;DHT22;10645;52.370;13.314;2023-04-03T15:27:35;5.20;99.90
20973;DHT22;10645;52.370;13.314;2023-04-03T15:30:02;5.10;99.90
20973;DHT22;10645;52.370;13.314;2023-04-03T15:32:28;5.00;99.90
20973;DHT22;10645;52.370;13.314;2023-04-03T15:34:54;5.00;99.90
20973;DHT22;10645;52.370;13.314;2023-04-03T15:37:20;5.00;99.90
20973;DHT22;10645;52.370;13.314;2023-04-03T15:39:46;4.90;99.90
20973;DHT22;10645;52.370;13.314;2023-04-03T15:42:13;4.80;99.90
20973;DHT22;10645;52.370;13.314;2023-04-03T15:44:39;4.80;99.90
20973;DHT22;10645;52.370;13.314;2023-04-03T15:47:05;4.70;99.90
20973;DHT22;10645;52.370;13.314;2023-04-03T15:49:33;4.70;99.90
20973;DHT22;10645;52.370;13.314;2023-04-03T15:51:59;4.70;99.90
20973;DHT22;10645;52.370;13.314;2023-04-03T15:54:26;4.60;99.90
20973;DHT22;10645;52.370;13.314;2023-04-03T15:56:53;4.50;99.90
20973;DHT22;10645;52.370;13.314;2023-04-03T15:59:19;4.50;99.90
20973;DHT22;10645;52.370;13.314;2023-04-03T16:01:45;4.40;99.90
20973;DHT22;10645;52.370;13.314;2023-04-03T16:04:11;4.40;99.90
20973;DHT22;10645;52.370;13.314;2023-04-03T16:06:38;4.40;99.90
20973;DHT22;10645;52.370;13.314;2023-04-03T16:09:04;4.30;99.90
20973;DHT22;10645;52.370;13.314;2023-04-03T16:11:30;4.40;99.90
20973;DHT22;10645;52.370;13.314;2023-04-03T16:13:57;4.30;99.90
20973;DHT22;10645;52.370;13.314;2023-04-03T16:16:24;4.30;99.90
20973;DHT22;10645;52.370;13.314;2023-04-03T16:18:53;4.30;99.90
20973;DHT22;10645;52.370;13.314;2023-04-03T16:21:20;4.30;99.90
20973;DHT22;10645;52.370;13.314;2023-04-03T16:23:47;4.40;99.90
20973;DHT22;10645;52.370;13.314;2023-04-03T16:26:14;4.40;99.90
20973;DHT22;10645;52.370;13.314;2023-04-03T16:28:40;4.30;99.90
20973;DHT22;10645;52.370;13.314;2023-04-03T16:31:07;4.30;99.90
20973;DHT22;10645;52.370;13.314;2023-04-03T16:33:33;4.20;99.90
20973;DHT22;10645;52.370;13.314;2023-04-03T16:36:00;4.10;99.90
20973;DHT22;10645;52.370;13.314;2023-04-03T16:38:26;4.10;99.90
20973;DHT22;10645;52.370;13.314;2023-04-03T16:40:52;4.10;99.90
20973;DHT22;10645;52.370;13.314;2023-04-03T16:43:22;4.10;99.90
20973;DHT22;10645;52.370;13.314;2023-04-03T16:45:48;4.10;99.90
20973;DHT22;10645;52.370;13.314;2023-04-03T16:48:14;4.10;99.90
20973;DHT22;10645;52.370;13.314;2023-04-03T16:50:41;4.10;99.90
20973;DHT22;10645;52.370;13.314;2023-04-03T16:53:07;4.20;99.90
20973;DHT22;10645;52.370;13.314;2023-04-03T16:55:36;4.20;99.90
20973;DHT22;10645;52.370;13.314;2023-04-03T16:58:02;4.30;99.90
20973;DHT22;10645;52.370;13.314;2023-04-03T17:00:30;4.30;99.90